Tuesday, April 24, 2018, 9:06 PM EDT
Back to Local

KORE, Orange, Orange Municipal Airport

Location: Orange, MA, United States Lat: 42.572
Local Time: 9:06 PM EDT ( 1:06 GMT) Lon: -72.278
Time Zone: US/Eastern Elev: 554 ft

Show me the last for .
Show Decoded

2018-04-24 20:52 METAR KORE 250052Z AUTO 19009KT 10SM CLR 13/03 A3024 RMK AO2 SLP244 T01330028 =
2018-04-24 19:52 METAR KORE 242352Z AUTO 18007KT 10SM CLR 14/00 A3023 RMK AO2 SLP238 T01440000
                 10200 20144 55005 =
2018-04-24 18:52 METAR KORE 242252Z AUTO 18007KT 10SM CLR 16/M02 A3022 RMK AO2 SLP239 T01561022 =
2018-04-24 17:52 METAR KORE 242152Z AUTO 18013KT 10SM CLR 17/M04 A3024 RMK AO2 SLP243 T01721044 =
2018-04-24 16:52 METAR KORE 242052Z AUTO 17007G17KT 140V220 10SM CLR 19/M06 A3024 RMK AO2 SLP243
                 T01891061 56019 =
2018-04-24 15:52 METAR KORE 241952Z AUTO 20014G21KT 10SM CLR 19/M06 A3025 RMK AO2 SLP247
                 T01891056 =
2018-04-24 14:52 METAR KORE 241852Z AUTO 19011G19KT 10SM CLR 19/M06 A3027 RMK AO2 SLP253
                 T01941056 =
2018-04-24 13:52 METAR KORE 241752Z AUTO 15013G18KT 10SM CLR 18/M03 A3030 RMK AO2 SLP262
                 T01831033 10194 20044 56027 =
2018-04-24 12:52 METAR KORE 241652Z AUTO 20014G20KT 10SM CLR 18/M04 A3032 RMK AO2 SLP270
                 T01781039 =
2018-04-24 11:52 METAR KORE 241552Z AUTO 18008KT 10SM CLR 17/M04 A3035 RMK AO2 SLP279 T01721044 =
2018-04-24 10:52 METAR KORE 241452Z AUTO 18007KT 10SM CLR 15/M02 A3038 RMK AO2 SLP289 T01501022
                 58012 =
2018-04-24 09:52 METAR KORE 241352Z AUTO 16004KT 10SM CLR 13/01 A3039 RMK AO2 SLP293 T01280006 =
2018-04-24 08:52 METAR KORE 241252Z AUTO 19004KT 10SM CLR 09/02 A3040 RMK AO2 SLP299 T00890017 =
2018-04-24 07:52 METAR KORE 241152Z AUTO 00000KT 10SM CLR 04/00 A3041 RMK AO2 SLP303 T00440000
                 10044 21022 53006 =
2018-04-24 06:52 METAR KORE 241052Z AUTO 00000KT 10SM CLR 00/M01 A3041 RMK AO2 SLP299 T00001011 =
2018-04-24 05:52 METAR KORE 240952Z AUTO 00000KT 10SM CLR M02/M03 A3040 RMK AO2 SLP297 T10221028
                 =
2018-04-24 04:52 METAR KORE 240852Z AUTO 00000KT 10SM CLR M01/M03 A3039 RMK AO2 SLP296 T10111028
                 58004 =
2018-04-24 03:52 METAR KORE 240752Z AUTO 00000KT 10SM CLR 01/M03 A3040 RMK AO2 SLP298 T00061028 =
2018-04-24 02:52 METAR KORE 240652Z AUTO 00000KT 10SM CLR 01/M02 A3040 RMK AO2 SLP298 T00111022 =
2018-04-24 01:52 METAR KORE 240552Z AUTO 33003KT 10SM CLR 01/M02 A3041 RMK AO2 SLP300 T00111022
                 10133 20011 58001 =
2018-04-24 00:52 METAR KORE 240452Z AUTO 00000KT 10SM CLR 03/M02 A3042 RMK AO2 SLP303 T00331022
                 401891044 =
2018-04-23 23:52 METAR KORE 240352Z AUTO 19004KT 10SM CLR 09/M04 A3042 RMK AO2 SLP303 T00891044 =
2018-04-23 22:52 METAR KORE 240252Z AUTO 17006KT 10SM CLR 10/M04 A3041 RMK AO2 SLP300 T01001039
                 50015 =
2018-04-23 21:52 METAR KORE 240152Z AUTO 19007KT 10SM CLR 12/M05 A3042 RMK AO2 SLP302 T01171050 =

Support USWX by starting your Amazon purchase here.